sensor_id;sensor_type;location;lat;lon;timestamp;P1;durP1;ratioP1;P2;durP2;ratioP2
75589;SDS011;64169;47.240;11.312;2022-12-13T00:02:09;5.50;;;1.35;;
75589;SDS011;64169;47.240;11.312;2022-12-13T00:04:35;0.65;;;0.45;;
75589;SDS011;64169;47.240;11.312;2022-12-13T00:07:00;1.25;;;0.70;;
75589;SDS011;64169;47.240;11.312;2022-12-13T00:09:26;1.17;;;0.63;;
75589;SDS011;64169;47.240;11.312;2022-12-13T00:11:51;1.13;;;0.75;;
75589;SDS011;64169;47.240;11.312;2022-12-13T00:14:17;2.13;;;1.25;;
75589;SDS011;64169;47.240;11.312;2022-12-13T00:16:46;3.00;;;1.17;;
75589;SDS011;64169;47.240;11.312;2022-12-13T00:19:12;4.20;;;0.88;;
75589;SDS011;64169;47.240;11.312;2022-12-13T00:21:38;2.85;;;1.20;;
75589;SDS011;64169;47.240;11.312;2022-12-13T00:24:04;3.58;;;1.08;;
75589;SDS011;64169;47.240;11.312;2022-12-13T00:26:30;2.53;;;1.58;;
75589;SDS011;64169;47.240;11.312;2022-12-13T00:29:00;0.68;;;0.60;;
75589;SDS011;64169;47.240;11.312;2022-12-13T00:31:29;0.65;;;0.65;;
75589;SDS011;64169;47.240;11.312;2022-12-13T00:33:57;0.40;;;0.40;;
75589;SDS011;64169;47.240;11.312;2022-12-13T00:36:23;0.82;;;0.60;;
75589;SDS011;64169;47.240;11.312;2022-12-13T00:38:49;0.70;;;0.55;;
75589;SDS011;64169;47.240;11.312;2022-12-13T00:41:25;0.95;;;0.50;;
75589;SDS011;64169;47.240;11.312;2022-12-13T00:43:51;1.67;;;1.05;;
75589;SDS011;64169;47.240;11.312;2022-12-13T00:46:18;4.13;;;1.25;;
75589;SDS011;64169;47.240;11.312;2022-12-13T00:48:47;1.20;;;0.82;;
75589;SDS011;64169;47.240;11.312;2022-12-13T00:51:14;1.17;;;1.08;;
75589;SDS011;64169;47.240;11.312;2022-12-13T00:53:39;0.50;;;0.50;;
75589;SDS011;64169;47.240;11.312;2022-12-13T00:56:09;0.45;;;0.45;;
75589;SDS011;64169;47.240;11.312;2022-12-13T00:58:36;2.25;;;0.98;;
75589;SDS011;64169;47.240;11.312;2022-12-13T01:01:05;1.55;;;0.95;;
75589;SDS011;64169;47.240;11.312;2022-12-13T01:03:32;1.10;;;0.80;;
75589;SDS011;64169;47.240;11.312;2022-12-13T01:05:58;21.92;;;1.27;;
75589;SDS011;64169;47.240;11.312;2022-12-13T01:08:24;2.17;;;1.23;;
75589;SDS011;64169;47.240;11.312;2022-12-13T01:10:49;1.08;;;0.70;;
75589;SDS011;64169;47.240;11.312;2022-12-13T01:13:15;1.75;;;1.42;;
75589;SDS011;64169;47.240;11.312;2022-12-13T01:15:43;1.02;;;0.70;;
75589;SDS011;64169;47.240;11.312;2022-12-13T01:18:10;1.00;;;0.65;;
75589;SDS011;64169;47.240;11.312;2022-12-13T01:20:36;1.00;;;0.88;;
75589;SDS011;64169;47.240;11.312;2022-12-13T01:23:02;1.05;;;0.98;;
75589;SDS011;64169;47.240;11.312;2022-12-13T01:25:28;1.00;;;0.77;;
75589;SDS011;64169;47.240;11.312;2022-12-13T01:27:54;0.28;;;0.20;;
75589;SDS011;64169;47.240;11.312;2022-12-13T01:30:19;0.82;;;0.60;;
75589;SDS011;64169;47.240;11.312;2022-12-13T01:32:45;1.90;;;1.00;;
75589;SDS011;64169;47.240;11.312;2022-12-13T01:35:10;2.28;;;0.63;;
75589;SDS011;64169;47.240;11.312;2022-12-13T01:37:37;1.35;;;0.88;;
75589;SDS011;64169;47.240;11.312;2022-12-13T01:40:03;1.38;;;1.08;;
75589;SDS011;64169;47.240;11.312;2022-12-13T01:42:29;4.07;;;1.02;;
75589;SDS011;64169;47.240;11.312;2022-12-13T01:47:25;0.60;;;0.50;;
75589;SDS011;64169;47.240;11.312;2022-12-13T01:49:55;0.63;;;0.55;;
75589;SDS011;64169;47.240;11.312;2022-12-13T01:52:23;2.92;;;1.00;;
75589;SDS011;64169;47.240;11.312;2022-12-13T01:54:50;1.27;;;0.40;;
75589;SDS011;64169;47.240;11.312;2022-12-13T01:57:17;0.45;;;0.45;;
75589;SDS011;64169;47.240;11.312;2022-12-13T01:59:43;1.55;;;1.00;;
75589;SDS011;64169;47.240;11.312;2022-12-13T02:02:09;0.70;;;0.63;;
75589;SDS011;64169;47.240;11.312;2022-12-13T02:04:44;0.45;;;0.43;;
75589;SDS011;64169;47.240;11.312;2022-12-13T02:07:24;3.50;;;0.55;;
75589;SDS011;64169;47.240;11.312;2022-12-13T02:09:52;0.85;;;0.77;;
75589;SDS011;64169;47.240;11.312;2022-12-13T02:12:20;0.73;;;0.70;;
75589;SDS011;64169;47.240;11.312;2022-12-13T02:14:45;0.55;;;0.55;;
75589;SDS011;64169;47.240;11.312;2022-12-13T02:17:14;0.65;;;0.63;;
75589;SDS011;64169;47.240;11.312;2022-12-13T02:31:13;0.88;;;0.65;;
75589;SDS011;64169;47.240;11.312;2022-12-13T02:41:33;0.10;;;0.10;;
75589;SDS011;64169;47.240;11.312;2022-12-13T02:44:13;0.65;;;0.57;;
75589;SDS011;64169;47.240;11.312;2022-12-13T02:46:45;0.85;;;0.70;;
75589;SDS011;64169;47.240;11.312;2022-12-13T02:49:16;1.20;;;1.08;;
75589;SDS011;64169;47.240;11.312;2022-12-13T02:51:43;1.73;;;0.95;;
75589;SDS011;64169;47.240;11.312;2022-12-13T02:54:09;1.02;;;0.63;;
75589;SDS011;64169;47.240;11.312;2022-12-13T02:56:34;0.88;;;0.57;;
75589;SDS011;64169;47.240;11.312;2022-12-13T02:59:00;1.25;;;0.70;;
75589;SDS011;64169;47.240;11.312;2022-12-13T03:02:16;2.35;;;0.88;;
75589;SDS011;64169;47.240;11.312;2022-12-13T03:18:13;0.30;;;0.30;;
75589;SDS011;64169;47.240;11.312;2022-12-13T03:20:44;1.63;;;1.00;;
75589;SDS011;64169;47.240;11.312;2022-12-13T03:23:11;1.42;;;0.88;;
75589;SDS011;64169;47.240;11.312;2022-12-13T03:25:37;1.08;;;0.80;;
75589;SDS011;64169;47.240;11.312;2022-12-13T03:28:02;0.60;;;0.52;;
75589;SDS011;64169;47.240;11.312;2022-12-13T03:30:28;2.20;;;1.42;;
75589;SDS011;64169;47.240;11.312;2022-12-13T03:32:55;1.65;;;1.13;;
75589;SDS011;64169;47.240;11.312;2022-12-13T03:35:20;1.42;;;1.15;;
75589;SDS011;64169;47.240;11.312;2022-12-13T03:37:46;1.30;;;0.82;;
75589;SDS011;64169;47.240;11.312;2022-12-13T03:40:12;1.27;;;0.95;;
75589;SDS011;64169;47.240;11.312;2022-12-13T03:42:37;0.50;;;0.45;;
75589;SDS011;64169;47.240;11.312;2022-12-13T03:45:03;3.20;;;1.20;;
75589;SDS011;64169;47.240;11.312;2022-12-13T03:47:28;3.78;;;1.35;;
75589;SDS011;64169;47.240;11.312;2022-12-13T03:49:54;1.60;;;1.50;;
75589;SDS011;64169;47.240;11.312;2022-12-13T03:52:20;1.00;;;0.70;;
75589;SDS011;64169;47.240;11.312;2022-12-13T03:54:45;1.88;;;1.45;;
75589;SDS011;64169;47.240;11.312;2022-12-13T03:57:11;2.38;;;0.90;;
75589;SDS011;64169;47.240;11.312;2022-12-13T03:59:39;2.95;;;0.88;;
75589;SDS011;64169;47.240;11.312;2022-12-13T04:02:05;1.75;;;1.10;;
75589;SDS011;64169;47.240;11.312;2022-12-13T04:04:30;1.50;;;1.25;;
75589;SDS011;64169;47.240;11.312;2022-12-13T04:06:56;1.27;;;0.50;;
75589;SDS011;64169;47.240;11.312;2022-12-13T04:09:21;0.77;;;0.63;;
75589;SDS011;64169;47.240;11.312;2022-12-13T04:11:47;0.70;;;0.70;;
75589;SDS011;64169;47.240;11.312;2022-12-13T04:14:31;1.65;;;1.05;;
75589;SDS011;64169;47.240;11.312;2022-12-13T04:16:56;1.73;;;1.15;;
75589;SDS011;64169;47.240;11.312;2022-12-13T04:19:22;0.73;;;0.70;;
75589;SDS011;64169;47.240;11.312;2022-12-13T04:21:47;1.05;;;0.70;;
75589;SDS011;64169;47.240;11.312;2022-12-13T04:24:12;2.00;;;1.58;;
75589;SDS011;64169;47.240;11.312;2022-12-13T04:26:38;1.33;;;1.05;;
75589;SDS011;64169;47.240;11.312;2022-12-13T04:29:03;4.13;;;1.27;;
75589;SDS011;64169;47.240;11.312;2022-12-13T04:31:29;0.50;;;0.50;;
75589;SDS011;64169;47.240;11.312;2022-12-13T04:33:54;0.40;;;0.20;;
75589;SDS011;64169;47.240;11.312;2022-12-13T04:36:20;1.48;;;0.90;;
75589;SDS011;64169;47.240;11.312;2022-12-13T04:38:45;3.35;;;1.30;;
75589;SDS011;64169;47.240;11.312;2022-12-13T04:41:17;1.63;;;1.35;;
75589;SDS011;64169;47.240;11.312;2022-12-13T04:43:43;1.15;;;0.82;;
75589;SDS011;64169;47.240;11.312;2022-12-13T04:46:14;1.35;;;0.60;;
75589;SDS011;64169;47.240;11.312;2022-12-13T04:48:40;2.85;;;1.70;;
75589;SDS011;64169;47.240;11.312;2022-12-13T04:51:05;1.92;;;1.70;;
75589;SDS011;64169;47.240;11.312;2022-12-13T04:53:31;0.85;;;0.68;;
75589;SDS011;64169;47.240;11.312;2022-12-13T04:55:56;2.25;;;1.58;;
75589;SDS011;64169;47.240;11.312;2022-12-13T04:58:22;2.22;;;1.73;;
75589;SDS011;64169;47.240;11.312;2022-12-13T05:00:47;4.38;;;1.77;;
75589;SDS011;64169;47.240;11.312;2022-12-13T05:03:12;3.50;;;2.17;;
75589;SDS011;64169;47.240;11.312;2022-12-13T05:05:38;1.65;;;1.25;;
75589;SDS011;64169;47.240;11.312;2022-12-13T05:08:05;3.08;;;1.20;;
75589;SDS011;64169;47.240;11.312;2022-12-13T05:10:31;2.40;;;0.88;;
75589;SDS011;64169;47.240;11.312;2022-12-13T05:12:57;1.10;;;0.98;;
75589;SDS011;64169;47.240;11.312;2022-12-13T05:15:23;1.60;;;1.40;;
75589;SDS011;64169;47.240;11.312;2022-12-13T05:17:48;7.07;;;2.70;;
75589;SDS011;64169;47.240;11.312;2022-12-13T05:20:14;1.92;;;1.30;;
75589;SDS011;64169;47.240;11.312;2022-12-13T05:22:39;1.80;;;1.35;;
75589;SDS011;64169;47.240;11.312;2022-12-13T05:25:05;2.30;;;1.55;;
75589;SDS011;64169;47.240;11.312;2022-12-13T05:27:31;2.70;;;1.20;;
75589;SDS011;64169;47.240;11.312;2022-12-13T05:29:56;3.00;;;1.50;;
75589;SDS011;64169;47.240;11.312;2022-12-13T05:32:22;1.20;;;0.73;;
75589;SDS011;64169;47.240;11.312;2022-12-13T05:34:47;2.80;;;1.52;;
75589;SDS011;64169;47.240;11.312;2022-12-13T05:37:14;2.92;;;1.88;;
75589;SDS011;64169;47.240;11.312;2022-12-13T05:39:39;1.75;;;1.15;;
75589;SDS011;64169;47.240;11.312;2022-12-13T05:42:04;1.17;;;0.88;;
75589;SDS011;64169;47.240;11.312;2022-12-13T05:44:30;1.55;;;1.30;;
75589;SDS011;64169;47.240;11.312;2022-12-13T05:46:56;0.77;;;0.60;;
75589;SDS011;64169;47.240;11.312;2022-12-13T05:49:22;4.75;;;3.22;;
75589;SDS011;64169;47.240;11.312;2022-12-13T05:51:47;4.63;;;2.20;;
75589;SDS011;64169;47.240;11.312;2022-12-13T05:54:13;2.03;;;1.27;;
75589;SDS011;64169;47.240;11.312;2022-12-13T05:56:38;11.57;;;2.60;;
75589;SDS011;64169;47.240;11.312;2022-12-13T05:59:04;5.60;;;1.83;;
75589;SDS011;64169;47.240;11.312;2022-12-13T06:01:29;3.25;;;1.75;;
75589;SDS011;64169;47.240;11.312;2022-12-13T06:03:55;1.15;;;1.00;;
75589;SDS011;64169;47.240;11.312;2022-12-13T06:06:20;4.18;;;1.55;;
75589;SDS011;64169;47.240;11.312;2022-12-13T06:08:46;7.45;;;1.98;;
75589;SDS011;64169;47.240;11.312;2022-12-13T06:11:11;2.95;;;1.63;;
75589;SDS011;64169;47.240;11.312;2022-12-13T06:13:40;1.73;;;1.17;;
75589;SDS011;64169;47.240;11.312;2022-12-13T06:16:06;5.82;;;2.55;;
75589;SDS011;64169;47.240;11.312;2022-12-13T06:18:33;1.42;;;1.30;;
75589;SDS011;64169;47.240;11.312;2022-12-13T06:21:00;1.73;;;0.65;;
75589;SDS011;64169;47.240;11.312;2022-12-13T06:23:27;0.98;;;0.82;;
75589;SDS011;64169;47.240;11.312;2022-12-13T06:25:54;1.58;;;0.82;;
75589;SDS011;64169;47.240;11.312;2022-12-13T06:28:20;1.95;;;1.42;;
75589;SDS011;64169;47.240;11.312;2022-12-13T06:30:45;3.42;;;1.63;;
75589;SDS011;64169;47.240;11.312;2022-12-13T06:33:11;4.55;;;2.28;;
75589;SDS011;64169;47.240;11.312;2022-12-13T06:35:37;13.05;;;2.78;;
75589;SDS011;64169;47.240;11.312;2022-12-13T06:38:02;1.50;;;1.17;;
75589;SDS011;64169;47.240;11.312;2022-12-13T06:40:28;1.73;;;0.95;;
75589;SDS011;64169;47.240;11.312;2022-12-13T06:42:54;1.52;;;1.40;;
75589;SDS011;64169;47.240;11.312;2022-12-13T06:45:19;2.70;;;1.55;;
75589;SDS011;64169;47.240;11.312;2022-12-13T06:47:45;3.70;;;1.38;;
75589;SDS011;64169;47.240;11.312;2022-12-13T06:50:10;1.15;;;0.82;;
75589;SDS011;64169;47.240;11.312;2022-12-13T06:52:35;0.98;;;0.88;;
75589;SDS011;64169;47.240;11.312;2022-12-13T06:55:02;1.35;;;0.85;;
75589;SDS011;64169;47.240;11.312;2022-12-13T06:57:27;2.25;;;1.63;;
75589;SDS011;64169;47.240;11.312;2022-12-13T06:59:53;3.30;;;2.15;;
75589;SDS011;64169;47.240;11.312;2022-12-13T07:02:18;0.75;;;0.65;;
75589;SDS011;64169;47.240;11.312;2022-12-13T07:04:43;1.77;;;1.27;;
75589;SDS011;64169;47.240;11.312;2022-12-13T07:07:09;2.30;;;1.75;;
75589;SDS011;64169;47.240;11.312;2022-12-13T07:09:34;0.60;;;0.57;;
75589;SDS011;64169;47.240;11.312;2022-12-13T07:12:00;2.78;;;2.25;;
75589;SDS011;64169;47.240;11.312;2022-12-13T07:14:26;1.98;;;1.35;;
75589;SDS011;64169;47.240;11.312;2022-12-13T07:16:51;2.28;;;1.90;;
75589;SDS011;64169;47.240;11.312;2022-12-13T07:19:16;3.65;;;1.70;;
75589;SDS011;64169;47.240;11.312;2022-12-13T07:21:42;1.48;;;0.88;;
75589;SDS011;64169;47.240;11.312;2022-12-13T07:24:07;6.38;;;2.05;;
75589;SDS011;64169;47.240;11.312;2022-12-13T07:26:33;2.80;;;2.55;;
75589;SDS011;64169;47.240;11.312;2022-12-13T07:28:58;2.78;;;2.08;;
75589;SDS011;64169;47.240;11.312;2022-12-13T07:31:24;3.42;;;1.98;;
75589;SDS011;64169;47.240;11.312;2022-12-13T07:33:49;4.43;;;2.13;;
75589;SDS011;64169;47.240;11.312;2022-12-13T07:36:16;1.80;;;1.25;;
75589;SDS011;64169;47.240;11.312;2022-12-13T07:38:43;1.38;;;0.90;;
75589;SDS011;64169;47.240;11.312;2022-12-13T07:41:09;2.10;;;1.60;;
75589;SDS011;64169;47.240;11.312;2022-12-13T07:43:34;6.85;;;2.65;;
75589;SDS011;64169;47.240;11.312;2022-12-13T07:46:01;4.05;;;2.85;;
75589;SDS011;64169;47.240;11.312;2022-12-13T07:48:28;3.15;;;1.88;;
75589;SDS011;64169;47.240;11.312;2022-12-13T07:50:58;4.90;;;2.00;;
75589;SDS011;64169;47.240;11.312;2022-12-13T07:53:25;4.53;;;2.40;;
75589;SDS011;64169;47.240;11.312;2022-12-13T07:55:50;3.10;;;1.30;;
75589;SDS011;64169;47.240;11.312;2022-12-13T07:58:16;3.92;;;2.08;;
75589;SDS011;64169;47.240;11.312;2022-12-13T08:00:42;5.43;;;3.22;;
75589;SDS011;64169;47.240;11.312;2022-12-13T08:03:08;4.20;;;1.42;;
75589;SDS011;64169;47.240;11.312;2022-12-13T08:05:34;0.63;;;0.52;;
75589;SDS011;64169;47.240;11.312;2022-12-13T08:08:01;1.88;;;1.25;;
75589;SDS011;64169;47.240;11.312;2022-12-13T08:10:27;3.00;;;1.52;;
75589;SDS011;64169;47.240;11.312;2022-12-13T08:12:52;2.42;;;1.67;;
75589;SDS011;64169;47.240;11.312;2022-12-13T08:15:18;2.15;;;1.65;;
75589;SDS011;64169;47.240;11.312;2022-12-13T08:17:44;7.40;;;2.38;;
75589;SDS011;64169;47.240;11.312;2022-12-13T08:20:09;8.23;;;3.58;;
75589;SDS011;64169;47.240;11.312;2022-12-13T08:22:35;4.63;;;2.95;;
75589;SDS011;64169;47.240;11.312;2022-12-13T08:25:01;6.53;;;3.80;;
75589;SDS011;64169;47.240;11.312;2022-12-13T08:27:26;8.65;;;3.72;;
75589;SDS011;64169;47.240;11.312;2022-12-13T08:29:52;6.05;;;3.90;;
75589;SDS011;64169;47.240;11.312;2022-12-13T08:32:18;2.63;;;1.58;;
75589;SDS011;64169;47.240;11.312;2022-12-13T08:34:43;2.60;;;1.50;;
75589;SDS011;64169;47.240;11.312;2022-12-13T08:37:12;4.25;;;1.50;;
75589;SDS011;64169;47.240;11.312;2022-12-13T08:39:37;2.03;;;1.08;;
75589;SDS011;64169;47.240;11.312;2022-12-13T08:42:04;4.10;;;1.77;;
75589;SDS011;64169;47.240;11.312;2022-12-13T08:44:31;2.75;;;1.60;;
75589;SDS011;64169;47.240;11.312;2022-12-13T08:46:57;7.70;;;3.72;;
75589;SDS011;64169;47.240;11.312;2022-12-13T08:49:22;4.55;;;2.70;;
75589;SDS011;64169;47.240;11.312;2022-12-13T08:51:48;8.93;;;2.78;;
75589;SDS011;64169;47.240;11.312;2022-12-13T08:54:13;3.53;;;2.80;;
75589;SDS011;64169;47.240;11.312;2022-12-13T08:56:38;1.33;;;0.80;;
75589;SDS011;64169;47.240;11.312;2022-12-13T08:59:04;1.90;;;1.05;;
75589;SDS011;64169;47.240;11.312;2022-12-13T09:01:29;4.45;;;2.30;;
75589;SDS011;64169;47.240;11.312;2022-12-13T09:03:55;15.38;;;1.52;;
75589;SDS011;64169;47.240;11.312;2022-12-13T09:06:21;6.78;;;1.92;;
75589;SDS011;64169;47.240;11.312;2022-12-13T09:08:46;5.63;;;3.33;;
75589;SDS011;64169;47.240;11.312;2022-12-13T09:11:11;4.45;;;1.48;;
75589;SDS011;64169;47.240;11.312;2022-12-13T09:13:37;5.35;;;2.78;;
75589;SDS011;64169;47.240;11.312;2022-12-13T09:16:04;3.38;;;1.77;;
75589;SDS011;64169;47.240;11.312;2022-12-13T09:18:30;6.60;;;3.15;;
75589;SDS011;64169;47.240;11.312;2022-12-13T09:20:55;2.58;;;1.55;;
75589;SDS011;64169;47.240;11.312;2022-12-13T09:23:21;2.85;;;1.42;;
75589;SDS011;64169;47.240;11.312;2022-12-13T09:25:51;2.38;;;1.30;;
75589;SDS011;64169;47.240;11.312;2022-12-13T09:28:18;9.52;;;3.92;;
75589;SDS011;64169;47.240;11.312;2022-12-13T09:30:44;6.88;;;2.75;;
75589;SDS011;64169;47.240;11.312;2022-12-13T09:33:09;1.85;;;1.13;;
75589;SDS011;64169;47.240;11.312;2022-12-13T09:35:36;1.40;;;0.85;;
75589;SDS011;64169;47.240;11.312;2022-12-13T09:38:02;3.47;;;0.82;;
75589;SDS011;64169;47.240;11.312;2022-12-13T09:40:27;1.30;;;0.80;;
75589;SDS011;64169;47.240;11.312;2022-12-13T09:42:54;2.75;;;1.30;;
75589;SDS011;64169;47.240;11.312;2022-12-13T09:45:21;2.83;;;2.08;;
75589;SDS011;64169;47.240;11.312;2022-12-13T09:47:47;0.70;;;0.57;;
75589;SDS011;64169;47.240;11.312;2022-12-13T09:50:14;0.55;;;0.52;;
75589;SDS011;64169;47.240;11.312;2022-12-13T09:52:44;3.67;;;1.23;;
75589;SDS011;64169;47.240;11.312;2022-12-13T09:55:34;1.40;;;0.88;;
75589;SDS011;64169;47.240;11.312;2022-12-13T09:58:25;0.80;;;0.60;;
75589;SDS011;64169;47.240;11.312;2022-12-13T10:00:51;2.72;;;0.98;;
75589;SDS011;64169;47.240;11.312;2022-12-13T10:03:18;0.60;;;0.43;;
75589;SDS011;64169;47.240;11.312;2022-12-13T10:05:49;2.05;;;1.20;;
75589;SDS011;64169;47.240;11.312;2022-12-13T10:08:22;1.15;;;0.70;;
75589;SDS011;64169;47.240;11.312;2022-12-13T10:10:49;1.02;;;0.75;;
75589;SDS011;64169;47.240;11.312;2022-12-13T10:13:23;2.42;;;0.85;;
75589;SDS011;64169;47.240;11.312;2022-12-13T10:16:15;1.60;;;0.90;;
75589;SDS011;64169;47.240;11.312;2022-12-13T10:18:42;1.48;;;0.70;;
75589;SDS011;64169;47.240;11.312;2022-12-13T10:21:24;4.05;;;1.75;;
75589;SDS011;64169;47.240;11.312;2022-12-13T10:24:06;1.75;;;0.90;;
75589;SDS011;64169;47.240;11.312;2022-12-13T10:26:35;2.83;;;0.70;;
75589;SDS011;64169;47.240;11.312;2022-12-13T10:29:03;1.77;;;0.95;;
75589;SDS011;64169;47.240;11.312;2022-12-13T10:31:30;2.17;;;0.75;;
75589;SDS011;64169;47.240;11.312;2022-12-13T10:34:14;3.05;;;0.82;;
75589;SDS011;64169;47.240;11.312;2022-12-13T10:36:44;1.20;;;0.73;;
75589;SDS011;64169;47.240;11.312;2022-12-13T10:39:43;2.22;;;1.00;;
75589;SDS011;64169;47.240;11.312;2022-12-13T10:42:04;2.42;;;1.00;;
75589;SDS011;64169;47.240;11.312;2022-12-13T10:44:37;10.25;;;1.02;;
75589;SDS011;64169;47.240;11.312;2022-12-13T10:49:36;2.15;;;0.80;;
75589;SDS011;64169;47.240;11.312;2022-12-13T10:52:04;2.85;;;1.10;;
75589;SDS011;64169;47.240;11.312;2022-12-13T10:54:34;3.20;;;1.05;;
75589;SDS011;64169;47.240;11.312;2022-12-13T10:57:01;1.63;;;0.85;;
75589;SDS011;64169;47.240;11.312;2022-12-13T11:02:00;3.95;;;1.30;;
75589;SDS011;64169;47.240;11.312;2022-12-13T11:04:32;1.75;;;0.98;;
75589;SDS011;64169;47.240;11.312;2022-12-13T11:09:47;4.45;;;1.27;;
75589;SDS011;64169;47.240;11.312;2022-12-13T11:12:13;4.20;;;1.13;;
75589;SDS011;64169;47.240;11.312;2022-12-13T11:15:03;2.92;;;1.30;;
75589;SDS011;64169;47.240;11.312;2022-12-13T11:17:31;1.92;;;0.95;;
75589;SDS011;64169;47.240;11.312;2022-12-13T11:20:24;3.33;;;1.27;;
75589;SDS011;64169;47.240;11.312;2022-12-13T11:22:58;1.67;;;0.50;;
75589;SDS011;64169;47.240;11.312;2022-12-13T11:25:45;3.05;;;0.90;;
75589;SDS011;64169;47.240;11.312;2022-12-13T11:39:31;3.50;;;1.00;;
75589;SDS011;64169;47.240;11.312;2022-12-13T11:42:11;2.50;;;1.52;;
75589;SDS011;64169;47.240;11.312;2022-12-13T11:47:17;3.15;;;1.00;;
75589;SDS011;64169;47.240;11.312;2022-12-13T11:49:48;1.92;;;0.98;;
75589;SDS011;64169;47.240;11.312;2022-12-13T11:52:16;1.58;;;1.00;;
75589;SDS011;64169;47.240;11.312;2022-12-13T11:57:29;2.50;;;1.00;;
75589;SDS011;64169;47.240;11.312;2022-12-13T12:00:57;2.30;;;1.13;;
75589;SDS011;64169;47.240;11.312;2022-12-13T12:02:51;2.47;;;1.13;;
75589;SDS011;64169;47.240;11.312;2022-12-13T12:08:00;4.53;;;1.25;;
75589;SDS011;64169;47.240;11.312;2022-12-13T12:10:50;2.65;;;1.40;;
75589;SDS011;64169;47.240;11.312;2022-12-13T12:13:33;1.65;;;0.98;;
75589;SDS011;64169;47.240;11.312;2022-12-13T12:30:22;1.33;;;0.57;;
75589;SDS011;64169;47.240;11.312;2022-12-13T12:33:01;3.50;;;1.20;;
75589;SDS011;64169;47.240;11.312;2022-12-13T12:38:25;3.47;;;1.50;;
75589;SDS011;64169;47.240;11.312;2022-12-13T12:46:44;5.55;;;1.98;;
75589;SDS011;64169;47.240;11.312;2022-12-13T12:51:51;3.55;;;1.45;;
75589;SDS011;64169;47.240;11.312;2022-12-13T12:54:45;3.47;;;1.35;;
75589;SDS011;64169;47.240;11.312;2022-12-13T13:03:30;3.42;;;1.33;;
75589;SDS011;64169;47.240;11.312;2022-12-13T13:06:01;1.88;;;0.90;;
75589;SDS011;64169;47.240;11.312;2022-12-13T13:09:08;3.25;;;1.40;;
75589;SDS011;64169;47.240;11.312;2022-12-13T13:11:34;3.10;;;1.15;;
75589;SDS011;64169;47.240;11.312;2022-12-13T13:14:04;2.80;;;0.90;;
75589;SDS011;64169;47.240;11.312;2022-12-13T13:16:50;1.70;;;0.68;;
75589;SDS011;64169;47.240;11.312;2022-12-13T13:26:35;2.83;;;1.33;;
75589;SDS011;64169;47.240;11.312;2022-12-13T13:34:49;2.28;;;1.13;;
75589;SDS011;64169;47.240;11.312;2022-12-13T13:42:24;1.75;;;0.80;;
75589;SDS011;64169;47.240;11.312;2022-12-13T13:44:55;3.50;;;0.93;;
75589;SDS011;64169;47.240;11.312;2022-12-13T13:53:10;2.53;;;1.13;;
75589;SDS011;64169;47.240;11.312;2022-12-13T14:18:23;7.90;;;2.67;;
75589;SDS011;64169;47.240;11.312;2022-12-13T14:29:13;3.95;;;1.20;;
75589;SDS011;64169;47.240;11.312;2022-12-13T14:31:42;4.93;;;2.17;;
75589;SDS011;64169;47.240;11.312;2022-12-13T14:34:21;4.43;;;1.55;;
75589;SDS011;64169;47.240;11.312;2022-12-13T14:37:01;7.13;;;2.28;;
75589;SDS011;64169;47.240;11.312;2022-12-13T14:39:46;3.20;;;1.40;;
75589;SDS011;64169;47.240;11.312;2022-12-13T14:42:19;3.90;;;1.77;;
75589;SDS011;64169;47.240;11.312;2022-12-13T14:47:39;7.75;;;2.15;;
75589;SDS011;64169;47.240;11.312;2022-12-13T14:50:05;4.85;;;1.58;;
75589;SDS011;64169;47.240;11.312;2022-12-13T14:52:32;4.78;;;1.48;;
75589;SDS011;64169;47.240;11.312;2022-12-13T14:55:01;5.68;;;1.98;;
75589;SDS011;64169;47.240;11.312;2022-12-13T14:57:30;3.78;;;1.65;;
75589;SDS011;64169;47.240;11.312;2022-12-13T14:59:58;4.38;;;1.45;;
75589;SDS011;64169;47.240;11.312;2022-12-13T15:04:57;3.60;;;1.40;;
75589;SDS011;64169;47.240;11.312;2022-12-13T15:07:25;4.47;;;2.00;;
75589;SDS011;64169;47.240;11.312;2022-12-13T15:10:03;4.57;;;1.80;;
75589;SDS011;64169;47.240;11.312;2022-12-13T15:12:30;5.45;;;1.67;;
75589;SDS011;64169;47.240;11.312;2022-12-13T15:17:34;7.25;;;2.65;;
75589;SDS011;64169;47.240;11.312;2022-12-13T15:20:15;4.03;;;2.42;;
75589;SDS011;64169;47.240;11.312;2022-12-13T15:22:45;6.20;;;2.53;;
75589;SDS011;64169;47.240;11.312;2022-12-13T15:25:11;9.27;;;3.58;;
75589;SDS011;64169;47.240;11.312;2022-12-13T15:27:37;8.80;;;4.72;;
75589;SDS011;64169;47.240;11.312;2022-12-13T15:30:03;8.90;;;2.28;;
75589;SDS011;64169;47.240;11.312;2022-12-13T15:32:29;8.32;;;3.95;;
75589;SDS011;64169;47.240;11.312;2022-12-13T15:34:54;6.88;;;3.00;;
75589;SDS011;64169;47.240;11.312;2022-12-13T15:39:59;8.27;;;3.20;;
75589;SDS011;64169;47.240;11.312;2022-12-13T15:42:34;11.52;;;3.58;;
75589;SDS011;64169;47.240;11.312;2022-12-13T15:45:05;7.65;;;3.17;;
75589;SDS011;64169;47.240;11.312;2022-12-13T15:47:31;10.80;;;4.13;;
75589;SDS011;64169;47.240;11.312;2022-12-13T15:49:58;14.02;;;3.47;;
75589;SDS011;64169;47.240;11.312;2022-12-13T15:52:33;8.65;;;3.55;;
75589;SDS011;64169;47.240;11.312;2022-12-13T15:57:31;7.15;;;3.17;;
75589;SDS011;64169;47.240;11.312;2022-12-13T16:05:42;8.55;;;2.53;;
75589;SDS011;64169;47.240;11.312;2022-12-13T16:08:23;5.38;;;1.92;;
75589;SDS011;64169;47.240;11.312;2022-12-13T16:10:55;11.75;;;2.92;;
75589;SDS011;64169;47.240;11.312;2022-12-13T16:13:29;6.45;;;2.50;;
75589;SDS011;64169;47.240;11.312;2022-12-13T16:15:57;7.30;;;2.50;;
75589;SDS011;64169;47.240;11.312;2022-12-13T16:18:25;7.47;;;2.88;;
75589;SDS011;64169;47.240;11.312;2022-12-13T16:20:56;4.47;;;2.25;;
75589;SDS011;64169;47.240;11.312;2022-12-13T16:23:21;6.28;;;2.75;;
75589;SDS011;64169;47.240;11.312;2022-12-13T16:25:47;6.13;;;2.80;;
75589;SDS011;64169;47.240;11.312;2022-12-13T16:28:13;19.08;;;2.97;;
75589;SDS011;64169;47.240;11.312;2022-12-13T16:33:21;9.63;;;2.78;;
75589;SDS011;64169;47.240;11.312;2022-12-13T16:35:48;7.20;;;2.47;;
75589;SDS011;64169;47.240;11.312;2022-12-13T16:38:14;10.18;;;2.92;;
75589;SDS011;64169;47.240;11.312;2022-12-13T16:40:40;7.28;;;3.00;;
75589;SDS011;64169;47.240;11.312;2022-12-13T16:43:06;6.63;;;2.97;;
75589;SDS011;64169;47.240;11.312;2022-12-13T16:45:40;8.18;;;3.20;;
75589;SDS011;64169;47.240;11.312;2022-12-13T16:48:11;5.03;;;2.50;;
75589;SDS011;64169;47.240;11.312;2022-12-13T16:50:40;6.63;;;2.72;;
75589;SDS011;64169;47.240;11.312;2022-12-13T16:53:07;13.93;;;4.03;;
75589;SDS011;64169;47.240;11.312;2022-12-13T16:55:32;10.57;;;4.93;;
75589;SDS011;64169;47.240;11.312;2022-12-13T16:57:58;15.70;;;6.95;;
75589;SDS011;64169;47.240;11.312;2022-12-13T17:00:25;13.40;;;5.30;;
75589;SDS011;64169;47.240;11.312;2022-12-13T17:02:52;13.63;;;5.93;;
75589;SDS011;64169;47.240;11.312;2022-12-13T17:05:18;9.55;;;4.43;;
75589;SDS011;64169;47.240;11.312;2022-12-13T17:07:43;10.38;;;3.65;;
75589;SDS011;64169;47.240;11.312;2022-12-13T17:10:09;12.32;;;3.75;;
75589;SDS011;64169;47.240;11.312;2022-12-13T17:12:35;15.18;;;5.80;;
75589;SDS011;64169;47.240;11.312;2022-12-13T17:15:00;8.20;;;3.17;;
75589;SDS011;64169;47.240;11.312;2022-12-13T17:17:26;9.07;;;3.28;;
75589;SDS011;64169;47.240;11.312;2022-12-13T17:19:51;7.07;;;2.97;;
75589;SDS011;64169;47.240;11.312;2022-12-13T17:22:17;14.43;;;4.20;;
75589;SDS011;64169;47.240;11.312;2022-12-13T17:24:42;6.70;;;4.07;;
75589;SDS011;64169;47.240;11.312;2022-12-13T17:27:08;10.30;;;4.63;;
75589;SDS011;64169;47.240;11.312;2022-12-13T17:29:33;9.90;;;4.25;;
75589;SDS011;64169;47.240;11.312;2022-12-13T17:31:59;8.95;;;4.03;;